createdAt,value
2023-03-05T00:01:30.253Z,18.00
2023-03-05T00:03:57.015Z,17.17
2023-03-05T00:06:25.764Z,13.40
2023-03-05T00:08:53.304Z,13.13
2023-03-05T00:11:20.632Z,15.83
2023-03-05T00:13:47.128Z,14.53
2023-03-05T00:16:15.547Z,12.60
2023-03-05T00:18:43.394Z,14.07
2023-03-05T00:21:24.862Z,14.13
2023-03-05T00:23:53.010Z,14.30
2023-03-05T00:26:21.682Z,14.23
2023-03-05T00:28:50.002Z,14.80
2023-03-05T00:31:21.513Z,12.57
2023-03-05T00:33:56.233Z,16.57
2023-03-05T00:36:24.410Z,15.97
2023-03-05T00:38:50.974Z,16.13
2023-03-05T00:41:17.430Z,12.33
2023-03-05T00:43:45.156Z,16.60
2023-03-05T00:46:11.562Z,17.23
2023-03-05T00:48:37.927Z,14.53
2023-03-05T00:51:04.762Z,14.80
2023-03-05T00:53:31.384Z,18.57
2023-03-05T00:55:58.746Z,13.93
2023-03-05T00:58:25.106Z,15.73
2023-03-05T01:00:51.480Z,16.70
2023-03-05T01:03:18.912Z,14.67
2023-03-05T01:05:45.456Z,16.07
2023-03-05T01:08:11.838Z,16.93
2023-03-05T01:10:38.316Z,19.33
2023-03-05T01:13:04.640Z,14.67
2023-03-05T01:15:31.020Z,16.00
2023-03-05T01:17:57.343Z,17.23
2023-03-05T01:20:23.714Z,17.10
2023-03-05T01:22:50.301Z,13.70
2023-03-05T01:25:17.735Z,14.23
2023-03-05T01:27:44.253Z,14.90
2023-03-05T01:30:12.172Z,15.33
2023-03-05T01:32:38.634Z,15.13
2023-03-05T01:35:06.300Z,12.53
2023-03-05T01:37:32.715Z,16.77
2023-03-05T01:39:59.040Z,16.03
2023-03-05T01:42:25.474Z,15.43
2023-03-05T01:45:10.121Z,17.03
2023-03-05T01:47:37.440Z,14.30
2023-03-05T01:50:07.199Z,14.77
2023-03-05T01:52:36.957Z,19.57
2023-03-05T01:55:11.693Z,14.80
2023-03-05T01:57:42.139Z,16.40
2023-03-05T02:00:11.284Z,15.43
2023-03-05T02:02:37.988Z,15.63
2023-03-05T02:05:09.787Z,16.73
2023-03-05T02:07:37.892Z,14.87
2023-03-05T02:10:16.748Z,15.10
2023-03-05T02:12:43.368Z,16.43
2023-03-05T02:15:10.408Z,13.00
2023-03-05T02:17:36.758Z,16.80
2023-03-05T02:20:27.321Z,13.70
2023-03-05T02:22:53.664Z,16.00
2023-03-05T02:25:24.182Z,15.73
2023-03-05T02:27:59.679Z,13.47
2023-03-05T02:30:26.068Z,12.33
2023-03-05T02:32:52.488Z,13.63
2023-03-05T02:35:19.281Z,15.80
2023-03-05T02:37:45.817Z,13.47
2023-03-05T02:40:13.211Z,18.33
2023-03-05T02:42:40.237Z,17.50
2023-03-05T02:45:07.193Z,16.80
2023-03-05T02:47:33.693Z,18.17
2023-03-05T02:50:00.044Z,15.90
2023-03-05T02:52:27.502Z,15.80
2023-03-05T02:54:54.135Z,16.10
2023-03-05T02:57:20.593Z,15.63
2023-03-05T02:59:47.415Z,14.10
2023-03-05T03:02:14.000Z,14.17
2023-03-05T03:04:40.444Z,18.77
2023-03-05T03:07:06.800Z,17.40
2023-03-05T03:09:35.498Z,17.63
2023-03-05T03:12:03.090Z,20.97
2023-03-05T03:14:39.180Z,17.30
2023-03-05T03:17:07.446Z,15.63
2023-03-05T03:19:33.978Z,18.57
2023-03-05T03:22:00.358Z,20.00
2023-03-05T03:24:27.237Z,19.27
2023-03-05T03:26:53.552Z,22.20
2023-03-05T03:29:19.956Z,17.53
2023-03-05T03:31:46.479Z,18.37
2023-03-05T03:34:14.993Z,16.67
2023-03-05T03:36:45.820Z,18.73
2023-03-05T03:39:14.042Z,17.27
2023-03-05T03:41:52.672Z,21.57
2023-03-05T03:44:20.793Z,19.43
2023-03-05T03:46:48.775Z,18.13
2023-03-05T03:49:23.568Z,21.37
2023-03-05T03:51:51.432Z,22.47
2023-03-05T03:54:18.672Z,22.07
2023-03-05T03:56:45.603Z,18.10
2023-03-05T03:59:12.838Z,17.97
2023-03-05T04:01:39.882Z,19.57
2023-03-05T04:04:07.182Z,22.77
2023-03-05T04:06:34.122Z,21.80
2023-03-05T04:09:00.411Z,22.57
2023-03-05T04:11:26.722Z,19.70
2023-03-05T04:13:53.007Z,20.60
2023-03-05T04:16:19.477Z,23.50
2023-03-05T04:18:48.030Z,22.63
2023-03-05T04:21:14.335Z,23.53
2023-03-05T04:23:40.952Z,19.67
2023-03-05T04:26:07.280Z,22.53
2023-03-05T04:28:33.660Z,22.17
2023-03-05T04:31:00.168Z,24.20
2023-03-05T04:33:26.710Z,21.47
2023-03-05T04:35:53.077Z,20.37
2023-03-05T04:38:19.410Z,17.00
2023-03-05T04:40:46.523Z,18.77
2023-03-05T04:43:12.952Z,16.43
2023-03-05T04:45:41.226Z,18.07
2023-03-05T04:48:07.848Z,15.27
2023-03-05T04:50:34.308Z,14.83
2023-03-05T04:53:00.812Z,13.63
2023-03-05T04:55:27.593Z,13.37
2023-03-05T04:57:54.005Z,15.27
2023-03-05T05:00:20.505Z,13.77
2023-03-05T05:02:49.613Z,14.60
2023-03-05T05:05:18.938Z,13.73
2023-03-05T05:07:45.430Z,9.20
2023-03-05T05:10:12.748Z,7.70
2023-03-05T05:12:39.302Z,11.23
2023-03-05T05:15:07.251Z,7.13
2023-03-05T05:17:34.357Z,6.43
2023-03-05T05:20:01.665Z,8.40
2023-03-05T05:22:29.115Z,7.20
2023-03-05T05:24:56.217Z,9.97
2023-03-05T05:27:22.785Z,6.67
2023-03-05T05:29:52.840Z,9.33
2023-03-05T05:32:20.831Z,8.77
2023-03-05T05:34:53.099Z,7.93
2023-03-05T05:37:19.385Z,8.27
2023-03-05T05:39:49.987Z,7.83
2023-03-05T05:42:17.822Z,8.67
2023-03-05T05:44:44.256Z,6.63
2023-03-05T05:47:11.220Z,6.73
2023-03-05T05:49:37.748Z,7.43
2023-03-05T05:52:04.472Z,7.87
2023-03-05T05:54:30.826Z,9.17
2023-03-05T05:56:57.117Z,8.13
2023-03-05T05:59:23.387Z,7.73
2023-03-05T06:01:49.855Z,6.47
2023-03-05T06:04:16.320Z,8.47
2023-03-05T06:06:42.633Z,8.97
2023-03-05T06:09:11.088Z,12.10
2023-03-05T06:11:38.349Z,9.87
2023-03-05T06:14:04.728Z,10.40
2023-03-05T06:16:31.121Z,12.03
2023-03-05T06:18:57.480Z,9.63
2023-03-05T06:21:23.809Z,11.63
2023-03-05T06:23:50.803Z,10.93
2023-03-05T06:26:20.032Z,12.47
2023-03-05T06:28:46.363Z,11.13
2023-03-05T06:31:18.608Z,13.20
2023-03-05T06:33:45.310Z,15.70
2023-03-05T06:36:14.604Z,18.63
2023-03-05T06:38:41.786Z,15.17
2023-03-05T06:41:11.651Z,13.43
2023-03-05T06:43:40.713Z,12.40
2023-03-05T06:46:15.950Z,12.07
2023-03-05T06:48:43.239Z,16.83
2023-03-05T06:51:21.288Z,15.07
2023-03-05T06:53:49.466Z,13.03
2023-03-05T06:56:17.243Z,12.47
2023-03-05T06:58:46.156Z,17.27
2023-03-05T07:01:16.196Z,15.10
2023-03-05T07:03:43.024Z,16.63
2023-03-05T07:06:13.121Z,16.97
2023-03-05T07:08:39.893Z,12.73
2023-03-05T07:11:11.017Z,14.97
2023-03-05T07:13:37.446Z,13.10
2023-03-05T07:16:14.064Z,13.83
2023-03-05T07:18:40.551Z,17.30
2023-03-05T07:21:08.934Z,12.33
2023-03-05T07:23:35.964Z,16.37
2023-03-05T07:26:03.764Z,13.27
2023-03-05T07:28:30.117Z,12.80
2023-03-05T07:31:08.582Z,11.60
2023-03-05T07:33:37.042Z,13.80
2023-03-05T07:36:04.750Z,13.80
2023-03-05T07:38:32.174Z,11.40
2023-03-05T07:41:03.569Z,8.63
2023-03-05T07:43:29.942Z,11.30
2023-03-05T07:45:56.246Z,8.90
2023-03-05T07:48:22.589Z,9.40
2023-03-05T07:50:49.093Z,12.00
2023-03-05T07:53:15.733Z,8.13
2023-03-05T07:55:46.482Z,9.00
2023-03-05T07:58:14.484Z,7.27
2023-03-05T08:00:41.088Z,11.77
2023-03-05T08:03:07.663Z,9.30
2023-03-05T08:05:34.003Z,11.27
2023-03-05T08:08:00.339Z,8.13
2023-03-05T08:10:26.824Z,8.43
2023-03-05T08:12:53.592Z,8.90
2023-03-05T08:15:19.930Z,10.27
2023-03-05T08:17:46.268Z,7.93
2023-03-05T08:20:13.082Z,7.10
2023-03-05T08:22:39.567Z,10.63
2023-03-05T08:25:07.563Z,8.93
2023-03-05T08:27:34.156Z,7.80
2023-03-05T08:30:02.148Z,10.13
2023-03-05T08:32:28.649Z,7.93
2023-03-05T08:35:02.738Z,6.93
2023-03-05T08:37:29.260Z,7.13
2023-03-05T08:39:56.385Z,10.80
2023-03-05T08:42:23.659Z,10.50
2023-03-05T08:44:49.996Z,9.00
2023-03-05T08:47:18.040Z,8.03
2023-03-05T08:49:44.797Z,8.73
2023-03-05T08:52:11.094Z,9.37
2023-03-05T08:54:38.574Z,6.97
2023-03-05T08:57:08.386Z,9.83
2023-03-05T08:59:34.831Z,8.67
2023-03-05T09:02:02.296Z,7.57
2023-03-05T09:04:31.049Z,12.90
2023-03-05T09:06:57.674Z,6.80
2023-03-05T09:09:24.667Z,8.40
2023-03-05T09:11:52.144Z,9.37
2023-03-05T09:14:18.429Z,6.53
2023-03-05T09:16:44.853Z,9.57
2023-03-05T09:19:12.677Z,6.37
2023-03-05T09:21:39.082Z,8.23
2023-03-05T09:24:05.535Z,8.70
2023-03-05T09:26:31.889Z,8.27
2023-03-05T09:28:58.269Z,10.10
2023-03-05T09:31:24.908Z,7.57
2023-03-05T09:33:51.298Z,8.27
2023-03-05T09:36:26.440Z,10.17
2023-03-05T09:38:53.604Z,8.97
2023-03-05T09:41:33.942Z,8.00
2023-03-05T09:44:15.239Z,9.23
2023-03-05T09:47:14.711Z,10.23
2023-03-05T09:49:44.036Z,9.43
2023-03-05T09:52:20.358Z,10.77
2023-03-05T09:54:53.562Z,8.10
2023-03-05T09:57:25.800Z,7.83
2023-03-05T10:00:01.280Z,8.23
2023-03-05T10:02:35.234Z,8.17
2023-03-05T10:05:18.750Z,7.50
2023-03-05T10:07:54.338Z,9.20
2023-03-05T10:10:47.783Z,9.50
2023-03-05T10:13:22.968Z,7.67
2023-03-05T10:15:51.913Z,7.83
2023-03-05T10:18:30.350Z,8.57
2023-03-05T10:20:59.169Z,9.10
2023-03-05T10:23:34.476Z,9.67
2023-03-05T10:26:13.742Z,7.57
2023-03-05T10:28:46.945Z,7.57
2023-03-05T10:31:21.500Z,6.90
2023-03-05T10:34:16.135Z,6.20
2023-03-05T10:37:10.261Z,6.20
2023-03-05T10:39:45.881Z,10.10
2023-03-05T10:42:36.941Z,6.73
2023-03-05T10:45:15.877Z,7.80
2023-03-05T10:48:03.693Z,7.73
2023-03-05T10:50:40.792Z,6.03
2023-03-05T10:53:10.205Z,8.83
2023-03-05T10:55:36.526Z,6.13
2023-03-05T10:58:12.129Z,7.43
2023-03-05T11:00:38.541Z,6.87
2023-03-05T11:03:08.991Z,7.80
2023-03-05T11:05:38.364Z,7.20
2023-03-05T11:08:24.820Z,9.07
2023-03-05T11:11:16.266Z,7.67
2023-03-05T11:13:58.723Z,6.20
2023-03-05T11:16:30.642Z,6.00
2023-03-05T11:19:20.254Z,7.37
2023-03-05T11:22:07.040Z,6.87
2023-03-05T11:24:33.842Z,6.03
2023-03-05T11:27:00.506Z,5.97
2023-03-05T11:29:30.216Z,6.87
2023-03-05T11:32:15.909Z,4.17
2023-03-05T11:34:42.484Z,5.10
2023-03-05T11:37:22.470Z,5.17
2023-03-05T11:39:50.099Z,3.87
2023-03-05T11:42:25.237Z,3.83
2023-03-05T11:44:53.872Z,4.60
2023-03-05T11:47:30.237Z,4.93
2023-03-05T11:50:20.914Z,5.03
2023-03-05T11:52:54.978Z,3.73
2023-03-05T11:55:28.385Z,4.00
2023-03-05T11:58:09.601Z,4.50
2023-03-05T12:00:37.884Z,2.70
2023-03-05T12:03:12.176Z,12.43
2023-03-05T12:05:43.302Z,5.67
2023-03-05T12:08:15.232Z,5.73
2023-03-05T12:10:41.870Z,4.83
2023-03-05T12:13:28.613Z,4.93
2023-03-05T12:16:26.203Z,6.07
2023-03-05T12:18:58.560Z,4.80
2023-03-05T12:21:33.845Z,5.50
2023-03-05T12:24:28.176Z,5.13
2023-03-05T12:27:03.038Z,5.20
2023-03-05T12:30:03.917Z,5.13
2023-03-05T12:32:33.105Z,7.53
2023-03-05T12:35:22.831Z,5.63
2023-03-05T12:37:49.191Z,3.83
2023-03-05T12:40:15.510Z,5.63
2023-03-05T12:43:00.696Z,6.63
2023-03-05T12:45:29.981Z,6.93
2023-03-05T12:47:56.237Z,4.40
2023-03-05T12:50:28.540Z,7.63
2023-03-05T12:53:09.903Z,6.87
2023-03-05T12:55:48.657Z,5.80
2023-03-05T12:58:17.046Z,5.93
2023-03-05T13:00:49.476Z,8.47
2023-03-05T13:03:20.638Z,6.73
2023-03-05T13:05:56.129Z,5.83
2023-03-05T13:08:31.560Z,7.47
2023-03-05T13:11:18.680Z,7.63
2023-03-05T13:13:47.504Z,8.07
2023-03-05T13:16:38.555Z,5.80
2023-03-05T13:19:16.299Z,8.13
2023-03-05T13:21:42.597Z,6.13
2023-03-05T13:24:18.109Z,6.30
2023-03-05T13:26:44.937Z,5.23
2023-03-05T13:29:18.493Z,5.33
2023-03-05T13:31:57.267Z,7.50
2023-03-05T13:34:46.143Z,7.27
2023-03-05T13:37:17.806Z,7.30
2023-03-05T13:39:58.688Z,7.37
2023-03-05T13:42:34.356Z,4.97
2023-03-05T13:45:05.378Z,5.00
2023-03-05T13:47:36.480Z,4.80
2023-03-05T13:50:09.644Z,7.97
2023-03-05T13:52:38.157Z,5.97
2023-03-05T13:55:13.275Z,6.73
2023-03-05T13:57:42.420Z,5.37
2023-03-05T14:00:29.873Z,8.50
2023-03-05T14:03:01.190Z,9.87
2023-03-05T14:05:30.781Z,6.57
2023-03-05T14:07:57.560Z,6.23
2023-03-05T14:10:34.628Z,5.97
2023-03-05T14:13:04.903Z,5.43
2023-03-05T14:15:34.335Z,5.67
2023-03-05T14:18:12.561Z,4.80
2023-03-05T14:20:40.692Z,6.60
2023-03-05T14:23:35.666Z,4.97
2023-03-05T14:26:28.985Z,5.33
2023-03-05T14:29:00.327Z,9.07
2023-03-05T14:31:29.007Z,6.50
2023-03-05T14:34:02.194Z,4.80
2023-03-05T14:36:30.316Z,5.60
2023-03-05T14:38:57.212Z,5.67
2023-03-05T14:41:35.312Z,5.33
2023-03-05T14:44:01.947Z,4.63
2023-03-05T14:46:28.664Z,6.13
2023-03-05T14:48:55.071Z,6.40
2023-03-05T14:51:21.845Z,5.63
2023-03-05T14:53:50.959Z,4.00
2023-03-05T14:56:23.760Z,5.37
2023-03-05T14:58:50.293Z,3.77
2023-03-05T15:01:17.087Z,5.67
2023-03-05T15:03:43.990Z,4.67
2023-03-05T15:06:24.084Z,5.63
2023-03-05T15:08:52.519Z,5.13
2023-03-05T15:11:18.827Z,5.57
2023-03-05T15:13:45.365Z,5.57
2023-03-05T15:16:15.752Z,8.67
2023-03-05T15:18:42.328Z,4.93
2023-03-05T15:21:08.729Z,5.87
2023-03-05T15:23:38.018Z,5.50
2023-03-05T15:26:07.831Z,4.90
2023-03-05T15:28:38.819Z,6.57
2023-03-05T15:31:06.221Z,6.13
2023-03-05T15:33:33.637Z,5.77
2023-03-05T15:36:00.333Z,5.17
2023-03-05T15:38:29.590Z,6.50
2023-03-05T15:40:55.970Z,6.33
2023-03-05T15:43:22.312Z,6.23
2023-03-05T15:45:48.648Z,5.10
2023-03-05T15:48:16.019Z,4.87
2023-03-05T15:50:43.571Z,6.20
2023-03-05T15:53:15.472Z,6.07
2023-03-05T15:55:46.076Z,5.47
2023-03-05T15:58:16.580Z,6.23
2023-03-05T16:00:44.236Z,6.27
2023-03-05T16:03:11.080Z,4.83
2023-03-05T16:05:40.258Z,7.13
2023-03-05T16:08:07.460Z,4.83
2023-03-05T16:10:35.566Z,4.73
2023-03-05T16:13:06.640Z,5.17
2023-03-05T16:15:33.724Z,5.43
2023-03-05T16:18:04.242Z,5.80
2023-03-05T16:20:30.690Z,6.67
2023-03-05T16:22:57.041Z,6.40
2023-03-05T16:25:23.407Z,6.83
2023-03-05T16:27:49.713Z,6.83
2023-03-05T16:30:16.919Z,8.20
2023-03-05T16:32:43.675Z,5.20
2023-03-05T16:35:12.146Z,5.43
2023-03-05T16:37:40.353Z,6.27
2023-03-05T16:40:08.687Z,5.77
2023-03-05T16:42:35.067Z,5.83
2023-03-05T16:45:01.719Z,6.60
2023-03-05T16:47:28.074Z,5.00
2023-03-05T16:49:54.394Z,7.30
2023-03-05T16:52:21.130Z,6.57
2023-03-05T16:54:48.418Z,6.50
2023-03-05T16:57:14.928Z,5.80
2023-03-05T16:59:41.420Z,6.47
2023-03-05T17:02:07.865Z,5.80
2023-03-05T17:04:34.215Z,6.67
2023-03-05T17:07:00.566Z,5.80
2023-03-05T17:09:26.938Z,6.40
2023-03-05T17:11:53.957Z,6.13
2023-03-05T17:14:20.601Z,7.27
2023-03-05T17:16:47.221Z,4.53
2023-03-05T17:19:13.718Z,6.63
2023-03-05T17:21:42.271Z,6.63
2023-03-05T17:24:09.788Z,5.37
2023-03-05T17:26:36.442Z,7.70
2023-03-05T17:29:04.471Z,11.00
2023-03-05T17:31:30.958Z,7.40
2023-03-05T17:33:57.512Z,6.43
2023-03-05T17:36:24.729Z,6.97
2023-03-05T17:38:52.062Z,6.10
2023-03-05T17:41:19.422Z,5.47
2023-03-05T17:43:46.580Z,8.00
2023-03-05T17:46:13.915Z,8.93
2023-03-05T17:48:41.546Z,7.63
2023-03-05T17:51:11.270Z,6.47
2023-03-05T17:53:39.286Z,8.30
2023-03-05T17:56:09.869Z,5.33
2023-03-05T17:58:36.896Z,7.00
2023-03-05T18:01:04.420Z,7.60
2023-03-05T18:03:30.793Z,5.57
2023-03-05T18:05:57.128Z,4.87
2023-03-05T18:08:23.484Z,4.43
2023-03-05T18:10:50.279Z,5.87
2023-03-05T18:13:16.857Z,7.33
2023-03-05T18:15:47.500Z,5.27
2023-03-05T18:18:17.844Z,6.33
2023-03-05T18:20:44.792Z,5.93
2023-03-05T18:23:11.505Z,6.80
2023-03-05T18:25:37.954Z,6.30
2023-03-05T18:28:07.224Z,7.80
2023-03-05T18:30:33.944Z,6.30
2023-03-05T18:33:00.786Z,5.70
2023-03-05T18:35:29.131Z,6.90
2023-03-05T18:37:56.145Z,4.83
2023-03-05T18:40:24.635Z,8.30
2023-03-05T18:42:51.614Z,7.13
2023-03-05T18:45:19.917Z,5.50
2023-03-05T18:47:46.882Z,5.17
2023-03-05T18:50:16.633Z,6.60
2023-03-05T18:52:43.289Z,4.93
2023-03-05T18:55:18.631Z,5.67
2023-03-05T18:57:45.135Z,6.53
2023-03-05T19:00:16.626Z,8.10
2023-03-05T19:02:42.915Z,6.67
2023-03-05T19:05:10.157Z,7.63
2023-03-05T19:07:37.884Z,9.03
2023-03-05T19:10:09.809Z,6.23
2023-03-05T19:12:45.387Z,6.33
2023-03-05T19:15:13.031Z,8.37
2023-03-05T19:17:39.449Z,7.97
2023-03-05T19:20:07.788Z,7.27
2023-03-05T19:22:34.706Z,7.90
2023-03-05T19:25:01.649Z,8.27
2023-03-05T19:27:28.084Z,6.33
2023-03-05T19:29:54.599Z,5.63
2023-03-05T19:32:24.689Z,6.33
2023-03-05T19:34:55.569Z,9.17
2023-03-05T19:37:22.238Z,7.30
2023-03-05T19:39:48.812Z,8.33
2023-03-05T19:42:15.414Z,9.70
2023-03-05T19:44:42.120Z,8.87
2023-03-05T19:47:08.470Z,8.43
2023-03-05T19:49:35.770Z,8.00
2023-03-05T19:52:02.082Z,7.60
2023-03-05T19:54:28.517Z,8.47
2023-03-05T19:56:55.748Z,7.83
2023-03-05T19:59:22.986Z,7.47
2023-03-05T20:01:49.531Z,6.07
2023-03-05T20:04:19.950Z,6.47
2023-03-05T20:06:46.590Z,6.93
2023-03-05T20:09:14.103Z,8.30
2023-03-05T20:11:40.888Z,6.40
2023-03-05T20:14:07.904Z,7.63
2023-03-05T20:16:37.485Z,8.23
2023-03-05T20:19:06.569Z,7.37
2023-03-05T20:21:36.300Z,7.20
2023-03-05T20:24:06.900Z,5.40
2023-03-05T20:26:36.988Z,6.83
2023-03-05T20:29:04.746Z,8.53
2023-03-05T20:31:33.849Z,8.13
2023-03-05T20:34:00.292Z,7.63
2023-03-05T20:36:26.585Z,7.50
2023-03-05T20:38:52.930Z,7.93
2023-03-05T20:41:23.178Z,8.77
2023-03-05T20:43:51.008Z,9.17
2023-03-05T20:46:32.734Z,7.90
2023-03-05T20:49:01.001Z,10.43
2023-03-05T20:51:36.118Z,8.23
2023-03-05T20:54:05.709Z,7.33
2023-03-05T20:56:33.790Z,8.17
2023-03-05T20:59:03.688Z,7.17
2023-03-05T21:01:32.057Z,6.67
2023-03-05T21:03:58.629Z,11.60
2023-03-05T21:06:27.030Z,10.33
2023-03-05T21:08:53.967Z,8.63
2023-03-05T21:11:20.510Z,10.37
2023-03-05T21:13:47.142Z,8.37
2023-03-05T21:16:17.236Z,7.57
2023-03-05T21:18:43.846Z,9.97
2023-03-05T21:21:10.271Z,7.67
2023-03-05T21:23:36.850Z,7.83
2023-03-05T21:26:04.115Z,10.63
2023-03-05T21:28:31.693Z,8.03
2023-03-05T21:30:58.050Z,9.17
2023-03-05T21:33:28.052Z,9.23
2023-03-05T21:35:56.854Z,7.33
2023-03-05T21:38:24.697Z,7.00
2023-03-05T21:40:53.599Z,6.43
2023-03-05T21:43:22.607Z,7.10
2023-03-05T21:45:50.881Z,6.37
2023-03-05T21:48:17.282Z,9.07
2023-03-05T21:50:45.333Z,7.60
2023-03-05T21:53:12.784Z,7.13
2023-03-05T21:55:54.965Z,8.20
2023-03-05T21:58:21.262Z,8.90
2023-03-05T22:00:50.045Z,6.73
2023-03-05T22:03:16.458Z,6.17
2023-03-05T22:05:43.846Z,8.63
2023-03-05T22:08:10.171Z,6.03
2023-03-05T22:10:36.586Z,7.27
2023-03-05T22:13:09.918Z,6.47
2023-03-05T22:15:50.976Z,6.83
2023-03-05T22:18:19.358Z,6.73
2023-03-05T22:20:46.341Z,4.73
2023-03-05T22:23:13.445Z,6.93
2023-03-05T22:25:40.837Z,8.17
2023-03-05T22:28:09.176Z,6.27
2023-03-05T22:30:35.892Z,7.23
2023-03-05T22:33:02.605Z,5.77
2023-03-05T22:35:29.722Z,5.53
2023-03-05T22:37:56.134Z,6.47
2023-03-05T22:40:22.673Z,6.60
2023-03-05T22:42:49.057Z,6.33
2023-03-05T22:45:17.697Z,5.47
2023-03-05T22:47:47.523Z,4.37
2023-03-05T22:50:14.699Z,5.90
2023-03-05T22:52:41.071Z,6.23
2023-03-05T22:55:07.785Z,6.77
2023-03-05T22:57:34.106Z,4.93
2023-03-05T23:00:00.412Z,6.30
2023-03-05T23:02:26.808Z,4.50
2023-03-05T23:04:54.853Z,6.53
2023-03-05T23:07:26.743Z,6.43
2023-03-05T23:10:21.166Z,5.93
2023-03-05T23:12:50.425Z,5.07
2023-03-05T23:15:19.810Z,4.73
2023-03-05T23:17:46.182Z,4.77
2023-03-05T23:20:16.518Z,4.93
2023-03-05T23:22:44.676Z,5.17
2023-03-05T23:25:12.990Z,5.97
2023-03-05T23:27:39.742Z,4.50
2023-03-05T23:30:19.477Z,6.20
2023-03-05T23:32:52.556Z,6.87
2023-03-05T23:35:23.558Z,5.17
2023-03-05T23:37:50.678Z,6.27
2023-03-05T23:40:25.765Z,5.07
2023-03-05T23:42:52.540Z,6.27
2023-03-05T23:45:20.158Z,6.57
2023-03-05T23:47:48.253Z,5.53
2023-03-05T23:50:20.871Z,5.43
2023-03-05T23:52:48.115Z,5.83
2023-03-05T23:55:21.146Z,5.40
2023-03-05T23:57:47.709Z,6.37
